Red Mills, New York
Current Conditions -  °F | °C
As of 4:53 AM on Thursday 23 Oct 2014 (Local Time) from KMSS Reporting Station
Overcast Overcast  
Wind Chill: 40°   Ceiling: 5000
Heat Index: 46°   Visibility: 10mi
Dew Point: 35°   Wind: 15mph
Humidity: 66%   Direction: 40°NE
Pressure: 30.11"   Gusts: 23mph
Location:  44.7176°N, 75.3859°W
Report Text: KMSS 230853Z AUTO 04013G20KT 10SM SCT035 OVC050 08/02 A3011 RMK AO2 SLP200 T00780017 57012
Loading
Personal Weather Stations






























Interactive Weather Map
Tropical Storm Tracking
New forecast layout! Learn more

10-Day Weather Forecast

Advertisements
Track Severe Weather on mobile